createdAt,value
2018-06-01T00:01:21.754Z,2.17
2018-06-01T00:04:24.853Z,1.87
2018-06-01T00:07:26.984Z,2.40
2018-06-01T00:10:30.084Z,2.40
2018-06-01T00:13:32.120Z,2.10
2018-06-01T00:16:34.138Z,2.00
2018-06-01T00:19:36.292Z,2.60
2018-06-01T00:22:38.352Z,2.27
2018-06-01T00:25:41.484Z,2.37
2018-06-01T00:28:43.620Z,2.47
2018-06-01T00:31:45.677Z,2.63
2018-06-01T00:34:47.741Z,2.40
2018-06-01T00:37:49.840Z,2.57
2018-06-01T00:40:51.899Z,2.30
2018-06-01T00:43:54.065Z,2.70
2018-06-01T00:46:56.137Z,2.83
2018-06-01T00:49:58.513Z,2.60
2018-06-01T00:53:00.670Z,2.97
2018-06-01T00:56:02.759Z,2.77
2018-06-01T00:59:04.824Z,2.80
2018-06-01T01:02:06.892Z,2.43
2018-06-01T01:05:09.062Z,2.87
2018-06-01T01:08:11.248Z,3.07
2018-06-01T01:11:13.498Z,2.70
2018-06-01T01:14:15.483Z,2.90
2018-06-01T01:17:18.169Z,3.33
2018-06-01T01:20:20.245Z,3.60
2018-06-01T01:23:22.464Z,2.97
2018-06-01T01:26:24.630Z,3.50
2018-06-01T01:29:26.674Z,3.57
2018-06-01T01:32:28.822Z,3.60
2018-06-01T01:35:30.930Z,3.30
2018-06-01T01:38:33.045Z,3.30
2018-06-01T01:41:35.221Z,3.03
2018-06-01T01:44:38.358Z,3.27
2018-06-01T01:47:40.501Z,3.33
2018-06-01T01:50:42.910Z,3.63
2018-06-01T01:53:46.052Z,3.40
2018-06-01T01:56:48.131Z,3.20
2018-06-01T01:59:50.308Z,3.70
2018-06-01T02:02:52.372Z,3.80
2018-06-01T02:05:54.442Z,3.47
2018-06-01T02:08:56.777Z,3.53
2018-06-01T02:11:58.896Z,3.40
2018-06-01T02:15:00.846Z,3.47
2018-06-01T02:18:02.964Z,3.47
2018-06-01T02:21:05.096Z,3.77
2018-06-01T02:24:07.157Z,4.90
2018-06-01T02:27:09.318Z,4.10
2018-06-01T02:30:12.889Z,4.27
2018-06-01T02:33:15.008Z,4.40
2018-06-01T02:36:17.176Z,4.33
2018-06-01T02:39:19.307Z,4.20
2018-06-01T02:42:21.508Z,4.90
2018-06-01T02:45:23.628Z,4.03
2018-06-01T02:48:25.765Z,3.93
2018-06-01T02:51:28.950Z,4.17
2018-06-01T02:54:31.080Z,3.80
2018-06-01T02:57:33.216Z,4.53
2018-06-01T03:00:35.419Z,4.17
2018-06-01T03:03:37.560Z,3.70
2018-06-01T03:06:48.796Z,3.73
2018-06-01T03:09:50.994Z,4.20
2018-06-01T03:12:53.033Z,3.60
2018-06-01T03:16:03.562Z,3.47
2018-06-01T03:19:05.571Z,3.57
2018-06-01T03:22:07.669Z,3.53
2018-06-01T03:25:09.733Z,3.73
2018-06-01T03:28:13.030Z,4.10
2018-06-01T03:31:15.177Z,3.50
2018-06-01T03:34:17.252Z,4.00
2018-06-01T03:37:19.423Z,3.50
2018-06-01T03:40:22.580Z,3.90
2018-06-01T03:43:24.693Z,3.73
2018-06-01T03:46:26.772Z,3.67
2018-06-01T03:49:28.933Z,3.90
2018-06-01T03:52:31.060Z,3.77
2018-06-01T03:55:33.056Z,4.43
2018-06-01T03:58:35.136Z,4.33
2018-06-01T04:01:37.313Z,4.43
2018-06-01T04:04:39.416Z,5.37
2018-06-01T04:07:42.868Z,4.37
2018-06-01T04:10:45.136Z,4.30
2018-06-01T04:13:47.184Z,4.53
2018-06-01T04:16:49.307Z,5.27
2018-06-01T04:19:51.368Z,5.33
2018-06-01T04:22:53.435Z,5.23
2018-06-01T04:25:55.590Z,5.63
2018-06-01T04:28:58.704Z,5.53
2018-06-01T04:32:00.945Z,5.50
2018-06-01T04:35:03.047Z,5.47
2018-06-01T04:38:05.095Z,5.27
2018-06-01T04:41:07.202Z,5.50
2018-06-01T04:44:09.385Z,5.50
2018-06-01T04:47:12.599Z,5.80
2018-06-01T04:50:14.723Z,5.10
2018-06-01T04:53:16.860Z,5.60
2018-06-01T04:56:18.961Z,5.40
2018-06-01T04:59:20.931Z,5.43
2018-06-01T05:02:22.979Z,5.10
2018-06-01T05:05:36.546Z,5.63
2018-06-01T05:08:38.592Z,4.77
2018-06-01T05:11:40.675Z,4.97
2018-06-01T05:14:43.412Z,5.00
2018-06-01T05:17:47.524Z,5.30
2018-06-01T05:21:00.508Z,5.57
2018-06-01T05:24:02.554Z,5.40
2018-06-01T05:27:04.656Z,5.83
2018-06-01T05:30:06.613Z,5.53
2018-06-01T05:33:08.764Z,5.10
2018-06-01T05:36:10.952Z,5.33
2018-06-01T05:39:14.060Z,5.67
2018-06-01T05:42:16.088Z,6.00
2018-06-01T05:45:18.169Z,5.27
2018-06-01T05:48:20.429Z,5.30
2018-06-01T05:51:22.532Z,5.47
2018-06-01T05:54:24.609Z,5.20
2018-06-01T05:57:26.657Z,5.63
2018-06-01T06:00:28.692Z,5.97
2018-06-01T06:03:31.810Z,5.90
2018-06-01T06:06:33.975Z,6.00
2018-06-01T06:09:36.020Z,6.20
2018-06-01T06:12:38.091Z,6.20
2018-06-01T06:15:40.193Z,6.43
2018-06-01T06:18:43.387Z,6.27
2018-06-01T06:21:45.473Z,6.77
2018-06-01T06:24:47.628Z,6.70
2018-06-01T06:27:49.679Z,7.27
2018-06-01T06:30:51.907Z,6.70
2018-06-01T06:33:54.128Z,6.83
2018-06-01T06:36:56.324Z,6.87
2018-06-01T06:39:58.301Z,6.33
2018-06-01T06:43:01.333Z,6.73
2018-06-01T06:46:08.141Z,6.47
2018-06-01T06:49:10.209Z,6.77
2018-06-01T06:52:14.335Z,6.33
2018-06-01T06:55:16.416Z,7.13
2018-06-01T06:58:18.443Z,6.63
2018-06-01T07:01:20.537Z,6.53
2018-06-01T07:04:22.677Z,5.87
2018-06-01T07:07:24.774Z,6.10
2018-06-01T07:10:26.856Z,5.90
2018-06-01T07:13:29.391Z,5.77
2018-06-01T07:16:31.469Z,5.77
2018-06-01T07:19:33.600Z,4.83
2018-06-01T07:22:35.728Z,4.80
2018-06-01T07:25:37.827Z,5.00
2018-06-01T07:28:40.578Z,5.07
2018-06-01T07:31:42.673Z,5.20
2018-06-01T07:34:45.723Z,5.07
2018-06-01T07:37:47.872Z,4.80
2018-06-01T07:40:49.985Z,5.20
2018-06-01T07:43:52.096Z,4.77
2018-06-01T07:46:54.189Z,4.77
2018-06-01T07:49:56.326Z,5.27
2018-06-01T07:52:58.360Z,4.50
2018-06-01T07:56:00.525Z,4.93
2018-06-01T07:59:02.776Z,4.67
2018-06-01T08:02:04.909Z,4.80
2018-06-01T08:05:06.922Z,4.67
2018-06-01T08:08:09.009Z,4.70
2018-06-01T08:11:11.072Z,4.63
2018-06-01T08:14:14.275Z,4.40
2018-06-01T08:17:16.521Z,4.50
2018-06-01T08:20:18.686Z,4.67
2018-06-01T08:23:20.825Z,4.13
2018-06-01T08:26:22.836Z,4.53
2018-06-01T08:29:24.781Z,4.97
2018-06-01T08:32:26.951Z,4.40
2018-06-01T08:35:29.167Z,4.63
2018-06-01T08:38:32.304Z,4.00
2018-06-01T08:41:34.851Z,4.80
2018-06-01T08:44:36.945Z,4.27
2018-06-01T08:47:39.094Z,4.10
2018-06-01T08:50:42.205Z,4.33
2018-06-01T08:53:45.334Z,3.90
2018-06-01T08:56:47.431Z,4.20
2018-06-01T08:59:49.508Z,3.60
2018-06-01T09:02:51.651Z,4.30
2018-06-01T09:05:53.780Z,4.10
2018-06-01T09:08:55.766Z,4.20
2018-06-01T09:11:58.910Z,4.03
2018-06-01T09:15:00.910Z,4.20
2018-06-01T09:18:02.969Z,4.20
2018-06-01T09:21:05.050Z,3.90
2018-06-01T09:24:07.160Z,4.17
2018-06-01T09:27:09.243Z,4.10
2018-06-01T09:30:11.313Z,4.40
2018-06-01T09:33:13.532Z,4.00
2018-06-01T09:36:15.707Z,3.73
2018-06-01T09:39:17.691Z,4.37
2018-06-01T09:42:19.829Z,4.07
2018-06-01T09:45:21.963Z,4.40
2018-06-01T09:48:24.355Z,4.17
2018-06-01T09:51:26.564Z,4.40
2018-06-01T09:54:28.786Z,4.60
2018-06-01T09:57:30.868Z,3.90
2018-06-01T10:00:37.622Z,4.00
2018-06-01T10:03:39.680Z,4.00
2018-06-01T10:06:41.780Z,4.13
2018-06-01T10:09:45.340Z,3.83
2018-06-01T10:12:47.540Z,4.30
2018-06-01T10:15:49.608Z,4.00
2018-06-01T10:18:51.646Z,3.97
2018-06-01T10:21:53.754Z,3.80
2018-06-01T10:24:55.775Z,4.10
2018-06-01T10:27:57.855Z,3.90
2018-06-01T10:30:59.846Z,3.37
2018-06-01T10:34:01.950Z,3.80
2018-06-01T10:37:05.032Z,3.83
2018-06-01T10:40:07.095Z,3.63
2018-06-01T10:43:09.260Z,3.63
2018-06-01T10:46:11.394Z,3.83
2018-06-01T10:49:13.484Z,3.37
2018-06-01T10:52:16.756Z,3.10
2018-06-01T10:55:19.891Z,3.83
2018-06-01T10:58:22.092Z,3.20
2018-06-01T11:01:25.228Z,3.60
2018-06-01T11:04:27.327Z,3.40
2018-06-01T11:07:30.402Z,2.90
2018-06-01T11:10:32.459Z,3.30
2018-06-01T11:13:34.433Z,3.33
2018-06-01T11:16:36.524Z,3.30
2018-06-01T11:19:39.072Z,3.47
2018-06-01T11:22:41.165Z,2.80
2018-06-01T11:25:43.250Z,3.23
2018-06-01T11:28:46.507Z,2.93
2018-06-01T11:31:48.626Z,3.17
2018-06-01T11:34:51.480Z,2.93
2018-06-01T11:37:53.567Z,3.00
2018-06-01T11:40:55.794Z,3.37
2018-06-01T11:43:57.831Z,2.80
2018-06-01T11:47:00.004Z,2.60
2018-06-01T11:50:02.090Z,2.90
2018-06-01T11:53:04.280Z,3.00
2018-06-01T11:56:06.402Z,2.83
2018-06-01T11:59:08.446Z,2.70
2018-06-01T12:02:10.615Z,2.77
2018-06-01T12:05:12.678Z,2.90
2018-06-01T12:08:15.659Z,2.93
2018-06-01T12:11:17.960Z,2.67
2018-06-01T12:14:20.552Z,2.70
2018-06-01T12:17:22.662Z,2.90
2018-06-01T12:20:24.773Z,2.30
2018-06-01T12:23:27.027Z,2.60
2018-06-01T12:26:29.080Z,2.30
2018-06-01T12:29:31.185Z,2.53
2018-06-01T12:32:33.296Z,2.67
2018-06-01T12:35:35.355Z,2.63
2018-06-01T12:38:37.482Z,2.50
2018-06-01T12:41:39.564Z,2.60
2018-06-01T12:44:42.635Z,3.07
2018-06-01T12:47:45.960Z,2.70
2018-06-01T12:50:47.995Z,3.00
2018-06-01T12:53:50.092Z,2.90
2018-06-01T12:56:52.254Z,2.90
2018-06-01T12:59:54.311Z,2.53
2018-06-01T13:02:56.364Z,2.90
2018-06-01T13:05:58.488Z,2.93
2018-06-01T13:09:00.565Z,2.50
2018-06-01T13:12:02.660Z,3.00
2018-06-01T13:15:04.631Z,2.80
2018-06-01T13:18:06.724Z,2.80
2018-06-01T13:21:08.777Z,2.73
2018-06-01T13:24:10.929Z,2.50
2018-06-01T13:27:12.996Z,2.30
2018-06-01T13:30:16.139Z,2.63
2018-06-01T13:33:19.000Z,2.40
2018-06-01T13:36:21.123Z,2.57
2018-06-01T13:39:23.298Z,2.43
2018-06-01T13:42:25.436Z,2.80
2018-06-01T13:45:27.504Z,2.60
2018-06-01T13:48:29.705Z,2.60
2018-06-01T13:51:32.907Z,2.70
2018-06-01T13:54:34.952Z,2.90
2018-06-01T13:57:37.147Z,2.63
2018-06-01T14:00:39.335Z,2.80
2018-06-01T14:03:42.379Z,3.10
2018-06-01T14:06:44.445Z,3.10
2018-06-01T14:09:47.860Z,2.73
2018-06-01T14:12:49.947Z,2.63
2018-06-01T14:15:52.064Z,2.83
2018-06-01T14:18:54.132Z,2.70
2018-06-01T14:21:56.268Z,2.50
2018-06-01T14:24:58.495Z,2.60
2018-06-01T14:28:00.535Z,2.70
2018-06-01T14:31:02.632Z,2.57
2018-06-01T14:34:04.728Z,2.60
2018-06-01T14:37:07.861Z,2.40
2018-06-01T14:40:09.970Z,2.37
2018-06-01T14:43:12.018Z,3.30
2018-06-01T14:46:14.164Z,2.67
2018-06-01T14:49:17.037Z,2.13
2018-06-01T14:52:19.125Z,2.43
2018-06-01T14:55:21.145Z,2.13
2018-06-01T14:58:23.260Z,2.00
2018-06-01T15:01:25.261Z,1.70
2018-06-01T15:04:27.351Z,1.70
2018-06-01T15:07:29.373Z,1.80
2018-06-01T15:10:32.448Z,1.97
2018-06-01T15:13:34.566Z,1.70
2018-06-01T15:16:36.535Z,1.77
2018-06-01T15:19:38.591Z,2.00
2018-06-01T15:22:40.665Z,1.80
2018-06-01T15:25:42.805Z,1.93
2018-06-01T15:28:46.946Z,2.17
2018-06-01T15:31:49.023Z,2.07
2018-06-01T15:34:51.058Z,1.87
2018-06-01T15:37:53.169Z,1.90
2018-06-01T15:40:55.286Z,1.83
2018-06-01T15:43:57.474Z,2.20
2018-06-01T15:46:59.573Z,2.00
2018-06-01T15:50:01.824Z,2.20
2018-06-01T15:53:03.920Z,2.00
2018-06-01T15:56:06.052Z,1.87
2018-06-01T15:59:08.255Z,2.00
2018-06-01T16:02:10.360Z,1.90
2018-06-01T16:05:12.391Z,2.13
2018-06-01T16:08:14.622Z,2.07
2018-06-01T16:11:18.889Z,2.27
2018-06-01T16:14:20.994Z,2.60
2018-06-01T16:17:22.954Z,2.80
2018-06-01T16:20:24.974Z,2.70
2018-06-01T16:23:27.064Z,2.60
2018-06-01T16:26:29.117Z,2.80
2018-06-01T16:29:31.371Z,2.30
2018-06-01T16:32:34.493Z,2.20
2018-06-01T16:35:36.649Z,2.33
2018-06-01T16:38:38.705Z,2.40
2018-06-01T16:41:40.799Z,2.57
2018-06-01T16:44:42.951Z,2.50
2018-06-01T16:47:45.091Z,2.60
2018-06-01T16:50:48.335Z,2.97
2018-06-01T16:53:51.442Z,2.30
2018-06-01T16:56:54.514Z,2.60
2018-06-01T16:59:56.680Z,2.40
2018-06-01T17:02:58.807Z,2.40
2018-06-01T17:06:00.918Z,2.40
2018-06-01T17:09:03.871Z,2.10
2018-06-01T17:12:06.043Z,2.47
2018-06-01T17:15:08.588Z,2.40
2018-06-01T17:18:10.746Z,2.47
2018-06-01T17:21:12.827Z,2.70
2018-06-01T17:24:14.891Z,2.93
2018-06-01T17:27:18.164Z,3.20
2018-06-01T17:30:20.241Z,2.83
2018-06-01T17:33:22.351Z,2.73
2018-06-01T17:36:24.472Z,2.70
2018-06-01T17:39:26.744Z,2.80
2018-06-01T17:42:28.951Z,2.57
2018-06-01T17:45:31.228Z,2.67
2018-06-01T17:48:33.275Z,3.40
2018-06-01T17:51:35.499Z,3.30
2018-06-01T17:54:37.648Z,2.57
2018-06-01T17:57:39.906Z,2.47
2018-06-01T18:00:42.061Z,2.70
2018-06-01T18:03:44.143Z,2.40
2018-06-01T18:06:46.233Z,2.60
2018-06-01T18:09:48.988Z,2.30
2018-06-01T18:12:51.144Z,2.30
2018-06-01T18:15:53.483Z,2.30
2018-06-01T18:18:55.618Z,2.50
2018-06-01T18:21:57.668Z,2.87
2018-06-01T18:24:59.755Z,2.70
2018-06-01T18:28:01.828Z,2.50
2018-06-01T18:31:03.895Z,2.83
2018-06-01T18:34:05.893Z,2.70
2018-06-01T18:37:08.015Z,2.87
2018-06-01T18:40:10.052Z,3.07
2018-06-01T18:43:13.172Z,2.40
2018-06-01T18:46:15.229Z,2.40
2018-06-01T18:49:19.580Z,2.13
2018-06-01T18:52:21.734Z,2.50
2018-06-01T18:55:23.726Z,2.80
2018-06-01T18:58:25.766Z,2.47
2018-06-01T19:01:27.945Z,2.40
2018-06-01T19:04:30.123Z,2.10
2018-06-01T19:07:32.243Z,2.30
2018-06-01T19:10:34.408Z,2.23
2018-06-01T19:13:36.536Z,2.60
2018-06-01T19:16:38.709Z,2.50
2018-06-01T19:19:40.857Z,2.43
2018-06-01T19:22:42.915Z,2.73
2018-06-01T19:25:44.993Z,3.07
2018-06-01T19:28:49.945Z,2.20
2018-06-01T19:31:52.015Z,2.97
2018-06-01T19:34:54.104Z,2.60
2018-06-01T19:37:56.327Z,2.60
2018-06-01T19:40:58.439Z,2.80
2018-06-01T19:44:00.640Z,3.00
2018-06-01T19:47:02.668Z,2.73
2018-06-01T19:50:05.033Z,2.80
2018-06-01T19:53:07.097Z,2.83
2018-06-01T19:56:11.163Z,2.53
2018-06-01T19:59:13.296Z,2.60
2018-06-01T20:02:15.402Z,2.70
2018-06-01T20:05:18.427Z,2.83
2018-06-01T20:08:20.732Z,2.63
2018-06-01T20:11:22.809Z,2.80
2018-06-01T20:14:24.856Z,2.80
2018-06-01T20:17:27.034Z,2.90
2018-06-01T20:20:29.111Z,2.60
2018-06-01T20:23:31.308Z,2.50
2018-06-01T20:26:33.533Z,2.70
2018-06-01T20:29:35.724Z,2.50
2018-06-01T20:32:37.761Z,2.40
2018-06-01T20:35:39.866Z,2.50
2018-06-01T20:38:42.002Z,2.77
2018-06-01T20:41:44.092Z,2.60
2018-06-01T20:44:46.308Z,2.40
2018-06-01T20:47:49.643Z,2.70
2018-06-01T20:50:51.721Z,2.73
2018-06-01T20:53:54.499Z,2.77
2018-06-01T20:56:56.583Z,2.70
2018-06-01T20:59:58.819Z,2.40
2018-06-01T21:03:00.936Z,2.60
2018-06-01T21:06:03.038Z,2.83
2018-06-01T21:09:05.191Z,2.60
2018-06-01T21:12:07.319Z,2.93
2018-06-01T21:15:09.361Z,2.90
2018-06-01T21:18:11.521Z,2.67
2018-06-01T21:21:13.557Z,2.70
2018-06-01T21:24:15.698Z,2.90
2018-06-01T21:27:17.788Z,2.80
2018-06-01T21:30:19.827Z,2.80
2018-06-01T21:33:21.929Z,2.67
2018-06-01T21:36:24.844Z,2.20
2018-06-01T21:39:27.001Z,2.73
2018-06-01T21:42:29.047Z,3.30
2018-06-01T21:45:31.091Z,3.10
2018-06-01T21:48:33.307Z,2.37
2018-06-01T21:51:35.347Z,2.40
2018-06-01T21:54:38.486Z,2.53
2018-06-01T21:57:40.519Z,2.53
2018-06-01T22:00:42.640Z,2.30
2018-06-01T22:03:44.763Z,2.10
2018-06-01T22:06:46.803Z,2.20
2018-06-01T22:09:50.245Z,2.50
2018-06-01T22:12:52.407Z,2.20
2018-06-01T22:15:55.506Z,2.57
2018-06-01T22:18:57.535Z,2.73
2018-06-01T22:21:59.891Z,2.67
2018-06-01T22:25:02.015Z,2.60
2018-06-01T22:28:04.197Z,2.50
2018-06-01T22:31:06.241Z,2.50
2018-06-01T22:34:11.962Z,2.60
2018-06-01T22:37:14.054Z,2.60
2018-06-01T22:40:16.139Z,2.90
2018-06-01T22:43:18.338Z,2.50
2018-06-01T22:46:20.412Z,2.87
2018-06-01T22:49:22.348Z,3.03
2018-06-01T22:52:25.532Z,3.00
2018-06-01T22:55:27.652Z,3.00
2018-06-01T22:58:29.769Z,2.77
2018-06-01T23:01:31.824Z,3.50
2018-06-01T23:04:33.966Z,3.10
2018-06-01T23:07:36.043Z,3.53
2018-06-01T23:10:38.167Z,3.60
2018-06-01T23:13:40.208Z,3.73
2018-06-01T23:16:42.278Z,3.80
2018-06-01T23:19:44.673Z,3.57
2018-06-01T23:22:46.727Z,3.90
2018-06-01T23:25:48.797Z,3.67
2018-06-01T23:28:51.876Z,3.70
2018-06-01T23:31:55.200Z,3.87
2018-06-01T23:34:57.270Z,3.83
2018-06-01T23:37:59.328Z,3.37
2018-06-01T23:41:01.516Z,3.50
2018-06-01T23:44:03.548Z,4.00
2018-06-01T23:47:05.634Z,4.13
2018-06-01T23:50:07.688Z,4.07
2018-06-01T23:53:09.775Z,4.30
2018-06-01T23:56:11.868Z,4.83
2018-06-01T23:59:14.012Z,4.77
